Time;durP1;ratioP1;P1;durP2;ratioP2;P2;SDS_P1;SDS_P2;PMS_P1;PMS_P2;Temp;Humidity;BMP_temperature;BMP_pressure;BME280_temperature;BME280_humidity;BME280_pressure;Samples;Min_cycle;Max_cycle;Signal;HPM_P1;HPM_P2
2022/06/18 00:00:35;;;;;;;9.52;4.72;;;;;;;22.10;57.81;101689.66;10540403;28;20035;-71
2022/06/18 00:05:35;;;;;;;6.50;4.18;;;;;;;22.05;59.20;101691.25;10540297;28;20483;-71
2022/06/18 00:10:36;;;;;;;7.30;4.13;;;;;;;22.02;61.76;101696.44;10534337;28;20024;-71
2022/06/18 00:15:37;;;;;;;6.32;4.72;;;;;;;21.99;60.74;101686.75;10535235;28;20129;-71
2022/06/18 00:20:38;;;;;;;5.20;4.38;;;;;;;21.97;60.69;101688.94;10553248;28;20048;-71
2022/06/18 00:25:40;;;;;;;16.75;10.95;;;;;;;21.92;59.78;101688.88;10552390;28;20111;-71
2022/06/18 00:30:41;;;;;;;10.93;7.60;;;;;;;21.88;58.67;101693.19;10534401;28;20027;-71
2022/06/18 00:35:42;;;;;;;4.13;3.67;;;;;;;21.83;58.67;101693.16;10518591;28;20085;-71
2022/06/18 00:40:43;;;;;;;13.90;7.93;;;;;;;21.79;58.55;101691.97;10534026;28;20031;-70
2022/06/18 00:45:43;;;;;;;5.95;5.38;;;;;;;21.72;58.44;101692.16;10552038;28;20073;-71
2022/06/18 00:50:50;;;;;;;10.13;3.83;;;;;;;21.68;58.46;101687.41;10552613;28;20139;-70
2022/06/18 00:56:01;;;;;;;4.97;4.28;;;;;;;21.63;60.38;101688.16;10552858;28;20114;-70
2022/06/18 01:01:03;;;;;;;6.63;6.03;;;;;;;21.63;60.34;101682.63;10518734;28;20031;-71
2022/06/18 01:06:12;;;;;;;7.70;6.32;;;;;;;21.62;61.02;101686.47;10535833;28;20037;-71
2022/06/18 01:11:19;;;;;;;7.43;5.70;;;;;;;21.61;59.84;101684.81;10535293;28;20032;-71
2022/06/18 01:16:20;;;;;;;5.65;4.68;;;;;;;21.54;61.67;101679.50;10552366;28;20542;-70
2022/06/18 01:21:30;;;;;;;8.45;5.78;;;;;;;21.49;60.89;101679.41;10529133;28;20092;-71
2022/06/18 01:26:31;;;;;;;13.57;5.38;;;;;;;21.44;61.81;101671.06;10528757;28;20155;-70
2022/06/18 01:31:32;;;;;;;18.73;10.50;;;;;;;21.42;61.00;101673.22;10545407;28;20116;-70
2022/06/18 01:36:34;;;;;;;10.25;6.25;;;;;;;21.39;61.00;101659.94;10545264;28;20111;-71
2022/06/18 01:41:52;;;;;;;8.23;5.50;;;;;;;21.45;63.02;101667.22;10526749;28;20077;-71
2022/06/18 01:46:53;;;;;;;9.57;4.40;;;;;;;21.48;66.04;101674.97;10511319;28;20385;-71
2022/06/18 01:51:54;;;;;;;5.70;5.03;;;;;;;21.50;65.36;101669.19;10544155;28;20036;-71
2022/06/18 01:56:57;;;;;;;13.02;6.05;;;;;;;21.40;66.36;101672.63;10493187;28;20035;-71
2022/06/18 02:01:58;;;;;;;15.25;9.43;;;;;;;21.25;63.91;101673.22;10509782;28;20429;-70
2022/06/18 02:06:59;;;;;;;12.80;6.13;;;;;;;21.08;64.89;101686.94;10526108;28;20169;-71
2022/06/18 02:12:01;;;;;;;17.90;6.38;;;;;;;20.92;70.39;101687.75;10543979;28;20102;-71
2022/06/18 02:17:03;;;;;;;6.35;4.75;;;;;;;20.78;67.16;101689.16;10526003;28;20044;-71
2022/06/18 02:22:04;;;;;;;17.35;6.43;;;;;;;20.60;66.93;101682.75;10525061;28;20058;-71
2022/06/18 02:27:04;;;;;;;26.98;6.13;;;;;;;20.43;70.08;101684.59;10509571;28;20031;-70
2022/06/18 02:32:06;;;;;;;13.25;6.25;;;;;;;20.28;69.43;101687.03;10508381;28;20047;-70
2022/06/18 02:37:18;;;;;;;13.90;5.35;;;;;;;20.13;67.56;101685.63;10492498;28;20036;-71
2022/06/18 02:42:19;;;;;;;12.98;7.35;;;;;;;19.95;72.63;101692.09;10524617;28;20031;-71
2022/06/18 02:47:21;;;;;;;12.55;7.22;;;;;;;19.81;70.50;101698.91;10508204;28;20534;-70
2022/06/18 02:52:23;;;;;;;9.40;5.93;;;;;;;19.66;70.39;101696.66;10542491;28;20096;-71
2022/06/18 02:57:24;;;;;;;20.13;9.60;;;;;;;19.52;69.10;101693.25;10507620;28;20039;-70
2022/06/18 03:02:24;;;;;;;13.70;7.75;;;;;;;19.41;69.43;101693.28;10508214;28;20035;-70
2022/06/18 03:07:25;;;;;;;12.13;5.95;;;;;;;19.28;68.57;101688.84;10524526;28;20038;-70
2022/06/18 03:12:26;;;;;;;12.32;8.35;;;;;;;19.16;68.31;101701.69;10507549;28;20032;-70
2022/06/18 03:17:26;;;;;;;12.15;8.25;;;;;;;19.03;67.36;101681.63;10523339;28;20044;-70
2022/06/18 03:22:27;;;;;;;16.05;7.20;;;;;;;18.95;67.49;101694.81;10489389;28;20036;-70
2022/06/18 03:27:27;;;;;;;22.80;8.63;;;;;;;18.86;67.76;101696.22;10523280;28;20085;-70
2022/06/18 03:32:28;;;;;;;19.90;8.88;;;;;;;18.80;67.59;101703.50;10523638;28;20461;-71
2022/06/18 03:37:28;;;;;;;14.95;7.95;;;;;;;18.75;67.23;101684.16;10523590;28;20089;-71
2022/06/18 03:42:29;;;;;;;12.70;7.88;;;;;;;18.68;67.18;101692.44;10521953;28;20465;-70
2022/06/18 03:47:29;;;;;;;11.60;7.82;;;;;;;18.65;66.74;101700.31;10505888;28;20040;-70
2022/06/18 03:52:30;;;;;;;20.67;8.68;;;;;;;18.64;67.03;101699.47;10523698;28;20021;-70
2022/06/18 03:57:31;;;;;;;19.45;7.45;;;;;;;18.63;67.45;101700.53;10522404;28;20060;-70
2022/06/18 04:02:32;;;;;;;11.60;7.50;;;;;;;18.64;67.59;101704.13;10506067;28;20024;-70
2022/06/18 04:07:32;;;;;;;23.52;8.52;;;;;;;18.69;67.61;101710.56;10522289;28;20035;-70
2022/06/18 04:12:33;;;;;;;19.92;9.18;;;;;;;18.74;67.18;101701.69;10521936;28;20074;-71
2022/06/18 04:17:33;;;;;;;14.48;8.68;;;;;;;18.83;67.26;101713.19;10504422;28;20059;-70
2022/06/18 04:22:34;;;;;;;24.10;8.45;;;;;;;18.91;67.34;101699.13;10521921;28;20111;-70
2022/06/18 04:27:34;;;;;;;9.57;7.55;;;;;;;18.98;68.45;101711.66;10506359;28;20032;-71
2022/06/18 04:32:36;;;;;;;19.42;8.00;;;;;;;19.12;68.26;101700.50;10505546;28;20032;-70
2022/06/18 04:37:38;;;;;;;13.10;9.32;;;;;;;19.31;67.78;101701.25;10489394;28;20067;-71
2022/06/18 04:42:38;;;;;;;16.65;9.65;;;;;;;19.56;68.20;101701.03;10521212;28;20496;-71
2022/06/18 04:47:40;;;;;;;14.75;9.20;;;;;;;19.84;68.25;101700.34;10504716;28;20044;-71
2022/06/18 04:52:40;;;;;;;15.35;8.30;;;;;;;20.20;67.56;101699.25;10522626;28;20119;-71
2022/06/18 04:57:41;;;;;;;14.63;8.85;;;;;;;20.52;67.50;101702.44;10528336;28;20032;-71
2022/06/18 05:02:41;;;;;;;13.13;8.43;;;;;;;20.82;68.04;101696.66;10528926;28;20036;-71
2022/06/18 05:07:43;;;;;;;14.75;8.02;;;;;;;21.11;67.65;101689.19;10528758;28;20397;-71
2022/06/18 05:12:43;;;;;;;14.40;7.65;;;;;;;21.49;66.99;101703.38;10546528;28;20081;-71
2022/06/18 05:17:44;;;;;;;22.08;7.85;;;;;;;21.85;66.69;101701.97;10528182;28;20048;-71
2022/06/18 05:22:45;;;;;;;12.57;8.05;;;;;;;22.23;66.18;101690.13;10527311;28;20024;-71
2022/06/18 05:27:45;;;;;;;17.70;8.02;;;;;;;22.56;65.61;101691.09;10546006;28;20028;-71
2022/06/18 05:32:46;;;;;;;16.20;8.30;;;;;;;22.92;65.05;101694.22;10494410;28;20032;-71
2022/06/18 05:37:47;;;;;;;12.65;8.50;;;;;;;23.27;64.59;101684.63;10510340;28;20036;-71
2022/06/18 05:42:47;;;;;;;13.93;8.68;;;;;;;23.59;64.16;101685.44;10546285;28;20032;-71
2022/06/18 05:47:48;;;;;;;15.82;8.80;;;;;;;24.04;63.17;101695.16;10545752;28;20119;-71
2022/06/18 05:52:48;;;;;;;12.68;7.97;;;;;;;24.33;62.91;101690.03;10510458;28;20036;-71
2022/06/18 05:57:51;;;;;;;10.35;7.53;;;;;;;24.71;62.39;101700.97;10510412;28;20028;-72
2022/06/18 06:02:51;;;;;;;12.75;7.18;;;;;;;25.05;61.99;101696.63;10526405;28;20545;-71
2022/06/18 06:07:52;;;;;;;17.95;7.25;;;;;;;25.59;60.91;101703.59;10526230;28;20093;-71
2022/06/18 06:12:52;;;;;;;11.50;6.53;;;;;;;26.02;60.39;101706.03;10526523;28;20485;-71
2022/06/18 06:17:53;;;;;;;9.50;6.03;;;;;;;26.25;59.77;101715.66;10525453;28;20076;-72
2022/06/18 06:22:53;;;;;;;12.88;5.75;;;;;;;26.58;59.61;101703.88;10509344;28;20032;-72
2022/06/18 06:27:53;;;;;;;16.05;6.15;;;;;;;26.93;58.64;101715.91;10525511;28;20074;-72
2022/06/18 06:32:54;;;;;;;11.25;5.70;;;;;;;27.29;57.52;101715.66;10525909;28;20114;-72
2022/06/18 06:37:54;;;;;;;11.80;6.05;;;;;;;27.43;57.47;101733.34;10526320;28;20031;-71
2022/06/18 06:42:58;;;;;;;4.95;4.50;;;;;;;27.76;56.52;101730.81;10524687;28;20481;-72
2022/06/18 06:47:58;;;;;;;12.50;4.68;;;;;;;27.96;55.87;101721.47;10542796;28;20032;-72
2022/06/18 06:52:59;;;;;;;13.07;5.00;;;;;;;28.35;54.97;101724.06;10524312;28;20123;-72
2022/06/18 06:57:59;;;;;;;7.22;5.30;;;;;;;28.81;54.42;101734.63;10526007;28;20040;-72
2022/06/18 07:02:59;;;;;;;9.05;4.57;;;;;;;29.15;53.67;101731.63;10541567;28;20028;-72
2022/06/18 07:08:00;;;;;;;7.13;3.95;;;;;;;29.53;52.50;101744.69;10542605;28;20033;-72
2022/06/18 07:13:00;;;;;;;6.43;4.43;;;;;;;29.39;51.62;101737.13;10541479;28;20541;-72
2022/06/18 07:18:02;;;;;;;10.27;4.63;;;;;;;29.49;51.57;101740.88;10541192;28;20076;-72
2022/06/18 07:23:03;;;;;;;10.05;4.60;;;;;;;29.58;51.20;101739.88;10524056;28;20070;-72
2022/06/18 07:28:04;;;;;;;14.20;5.05;;;;;;;29.60;49.78;101734.81;10523321;28;20545;-72
2022/06/18 07:33:04;;;;;;;11.25;4.63;;;;;;;29.62;50.27;101742.91;10541654;28;20043;-72
2022/06/18 07:38:04;;;;;;;20.55;5.13;;;;;;;29.74;50.41;101731.22;10541596;28;20111;-72
2022/06/18 07:43:07;;;;;;;4.93;4.22;;;;;;;30.21;49.47;101732.84;10540099;28;20043;-72
2022/06/18 07:48:07;;;;;;;7.30;4.00;;;;;;;30.16;49.38;101744.13;10522560;28;20122;-73
2022/06/18 07:53:11;;;;;;;6.43;4.43;;;;;;;30.43;49.08;101731.31;10540598;28;20032;-72
2022/06/18 07:58:11;;;;;;;5.40;4.95;;;;;;;30.71;49.06;101741.31;10539123;28;20032;-72
2022/06/18 08:03:13;;;;;;;6.55;3.67;;;;;;;30.69;48.42;101735.19;10540071;28;20473;-74
2022/06/18 08:08:14;;;;;;;3.75;3.20;;;;;;;31.40;47.71;101727.16;10539468;28;20473;-72
2022/06/18 08:13:15;;;;;;;8.00;2.72;;;;;;;31.71;47.24;101731.94;10521405;28;20039;-73
2022/06/18 08:18:15;;;;;;;4.10;3.75;;;;;;;31.91;46.83;101725.81;10540027;28;20568;-73
2022/06/18 08:23:16;;;;;;;18.02;4.40;;;;;;;31.99;45.72;101721.38;10489579;28;20533;-73
2022/06/18 08:28:16;;;;;;;9.85;4.25;;;;;;;31.67;43.53;101712.16;10541371;28;20032;-73
2022/06/18 08:33:18;;;;;;;4.75;3.72;;;;;;;31.98;44.60;101714.16;10548135;28;20035;-73
2022/06/18 08:38:18;;;;;;;3.88;3.58;;;;;;;31.88;44.11;101715.25;10547991;28;20441;-73
2022/06/18 08:43:34;;;;;;;11.48;4.90;;;;;;;31.90;43.54;101712.13;10546983;28;20131;-73
2022/06/18 08:49:09;;;;;;;5.63;2.97;;;;;;;32.54;43.96;101695.69;10547596;28;20043;-73
2022/06/18 08:54:23;;;;;;;3.95;3.40;;;;;;;32.76;43.53;101693.91;10492856;28;20064;-73
2022/06/18 08:59:43;;;;;;;4.68;3.30;;;;;;;32.35;43.34;101695.94;10530277;28;20036;-73
2022/06/18 09:05:03;;;;;;;5.72;3.05;;;;;;;32.72;44.08;101704.94;10547463;28;20030;-73
2022/06/18 09:10:05;;;;;;;5.43;3.88;;;;;;;32.68;43.76;101705.94;10529725;28;20472;-73
2022/06/18 09:15:14;;;;;;;9.60;3.72;;;;;;;32.73;43.30;101700.16;10546002;28;20024;-73
2022/06/18 09:20:25;;;;;;;13.00;3.78;;;;;;;33.21;43.19;101708.44;10547275;28;20051;-75
2022/06/18 09:25:28;;;;;;;4.53;3.15;;;;;;;33.52;42.49;101702.63;10545980;28;20024;-74
2022/06/18 09:30:34;;;;;;;2.88;2.50;;;;;;;33.69;42.11;101698.94;10494653;28;20035;-73
2022/06/18 09:36:01;;;;;;;8.95;4.15;;;;;;;33.74;41.61;101712.00;10494276;28;20035;-75
2022/06/18 09:41:05;;;;;;;4.25;3.17;;;;;;;33.82;41.63;101711.13;10511508;28;20024;-75
2022/06/18 09:46:12;;;;;;;3.72;3.33;;;;;;;33.71;40.59;101698.63;10544799;28;20479;-74
2022/06/18 09:51:36;;;;;;;4.30;2.83;;;;;;;34.20;40.68;101697.09;10512072;28;20088;-74
2022/06/18 09:56:43;;;;;;;3.85;1.77;;;;;;;34.10;39.35;101685.41;10511516;28;20030;-74
2022/06/18 10:01:53;;;;;;;1.95;1.60;;;;;;;34.30;39.77;101679.00;10526822;28;20511;-74
2022/06/18 10:06:55;;;;;;;2.70;1.92;;;;;;;34.37;39.60;101681.28;10544395;28;20032;-77
2022/06/18 10:11:55;;;;;;;3.65;2.40;;;;;;;34.27;41.00;101674.09;10526336;28;20028;-74
2022/06/18 10:17:05;;;;;;;4.40;2.17;;;;;;;34.80;39.72;101668.91;10526246;28;20381;-75
2022/06/18 10:22:11;;;;;;;2.88;2.25;;;;;;;34.43;39.61;101665.84;10525667;28;20118;-75
2022/06/18 10:27:28;;;;;;;2.25;2.05;;;;;;;34.53;39.67;101668.31;10543542;28;20024;-74
2022/06/18 10:32:56;;;;;;;4.65;1.85;;;;;;;34.99;39.91;101649.53;10509223;28;20124;-74
2022/06/18 10:38:00;;;;;;;2.47;2.13;;;;;;;34.93;39.88;101653.72;10525996;28;20470;-74
2022/06/18 10:43:31;;;;;;;2.95;2.45;;;;;;;35.05;39.03;101647.34;10543271;28;20024;-75
2022/06/18 10:48:32;;;;;;;9.38;2.53;;;;;;;35.23;39.42;101647.97;10528172;28;20477;-75
2022/06/18 10:53:46;;;;;;;4.28;2.63;;;;;;;35.26;39.71;101645.31;10507079;28;20089;-75
2022/06/18 10:58:51;;;;;;;6.20;2.58;;;;;;;35.28;39.37;101651.41;10524901;28;20032;-75
2022/06/18 11:03:54;;;;;;;3.10;2.35;;;;;;;34.77;39.35;101644.28;10541959;28;20024;-75
2022/06/18 11:08:58;;;;;;;5.03;3.08;;;;;;;33.41;41.05;101647.97;10542485;28;20120;-75
2022/06/18 11:14:15;;;;;;;3.08;2.65;;;;;;;33.34;40.49;101628.00;10542160;28;20040;-74
2022/06/18 11:19:19;;;;;;;3.10;2.10;;;;;;;33.52;40.65;101634.41;10522847;28;20040;-74
2022/06/18 11:24:32;;;;;;;6.28;3.67;;;;;;;33.28;40.58;101626.50;10539501;28;20032;-74
2022/06/18 11:29:40;;;;;;;3.42;2.78;;;;;;;33.25;41.20;101624.38;10506845;28;20032;-74
2022/06/18 11:34:43;;;;;;;4.28;3.25;;;;;;;32.90;41.76;101627.25;10525037;28;20107;-74
2022/06/18 11:40:03;;;;;;;3.55;3.25;;;;;;;33.56;40.94;101633.38;10522918;28;20020;-73
2022/06/18 11:45:18;;;;;;;3.88;3.10;;;;;;;32.50;42.61;101612.56;10525103;28;20028;-74
2022/06/18 11:50:45;;;;;;;5.47;4.10;;;;;;;33.21;41.83;101609.38;10522633;28;20097;-74
2022/06/18 11:55:51;;;;;;;2.70;2.35;;;;;;;34.28;40.24;101613.03;10540456;28;20044;-74
2022/06/18 12:01:21;;;;;;;3.20;2.95;;;;;;;34.71;39.44;101610.72;10540296;28;20055;-74
2022/06/18 12:06:42;;;;;;;4.28;2.38;;;;;;;34.46;40.64;101611.72;10539444;28;20113;-74
2022/06/18 12:12:04;;;;;;;6.93;2.72;;;;;;;33.97;41.39;101609.41;10521891;28;20028;-74
2022/06/18 12:17:15;;;;;;;1.65;1.55;;;;;;;33.61;41.20;101609.94;10539335;28;20083;-74
2022/06/18 12:22:40;;;;;;;1.42;1.33;;;;;;;33.33;41.58;101604.72;10521316;28;20063;-73
2022/06/18 12:27:58;;;;;;;3.45;2.45;;;;;;;32.97;41.48;101604.31;10490174;28;20020;-74
2022/06/18 12:33:24;;;;;;;4.15;3.47;;;;;;;32.84;41.69;101583.69;10506980;28;20473;-73
2022/06/18 12:38:46;;;;;;;6.30;3.88;;;;;;;33.38;40.83;101589.69;10506545;28;20032;-74
2022/06/18 12:43:52;;;;;;;3.85;2.55;;;;;;;33.49;40.46;101582.53;10521500;28;20028;-73
2022/06/18 12:49:28;;;;;;;2.20;2.10;;;;;;;33.96;40.27;101584.47;10539555;28;20113;-74
2022/06/18 12:54:44;;;;;;;2.60;1.55;;;;;;;33.60;39.62;101587.78;10467899;28;20040;-74
2022/06/18 13:00:14;;;;;;;3.22;2.05;;;;;;;33.42;40.63;101601.06;10539161;28;20484;-74
2022/06/18 13:05:23;;;;;;;1.35;1.25;;;;;;;33.42;39.41;101610.31;10521512;28;20067;-74
2022/06/18 13:10:53;;;;;;;1.20;1.20;;;;;;;32.23;39.49;101610.84;10538761;28;20032;-73
2022/06/18 13:16:16;;;;;;;1.73;1.63;;;;;;;31.64;40.87;101609.19;10509876;28;20496;-73
2022/06/18 13:21:16;;;;;;;5.97;1.77;;;;;;;31.54;41.01;101606.69;10528245;28;20070;-73
2022/06/18 13:31:51;;;;;;;4.07;2.20;;;;;;;30.64;41.77;101595.53;10516619;28;20047;-73
2022/06/18 13:37:20;;;;;;;2.58;1.70;;;;;;;30.54;41.94;101598.59;10545091;28;20042;-73
2022/06/18 13:42:46;;;;;;;2.03;1.92;;;;;;;30.02;42.78;101598.03;10527521;28;20032;-73
2022/06/18 13:48:04;;;;;;;3.85;1.88;;;;;;;30.04;42.89;101584.59;10543391;28;20028;-76
2022/06/18 13:53:04;;;;;;;8.48;2.08;;;;;;;30.25;43.18;101579.38;10543931;28;20032;-81
2022/06/18 13:58:38;;;;;;;4.35;2.25;;;;;;;30.47;43.13;101576.66;10544782;28;20397;-73
2022/06/18 14:03:56;;;;;;;3.45;2.20;;;;;;;30.37;43.10;101585.25;10482441;28;20040;-73
2022/06/18 14:08:59;;;;;;;3.47;1.83;;;;;;;30.14;43.50;101589.94;10544433;28;20469;-73
2022/06/18 14:14:01;;;;;;;2.08;1.88;;;;;;;30.26;43.49;101593.06;10526894;28;20373;-73
2022/06/18 14:19:08;;;;;;;2.63;2.17;;;;;;;29.62;44.38;101587.41;10492533;28;20482;-72
2022/06/18 14:24:09;;;;;;;5.65;2.13;;;;;;;29.60;44.21;101580.44;10543781;28;20380;-74
2022/06/18 14:29:10;;;;;;;3.03;1.35;;;;;;;28.84;45.25;101554.78;10542980;28;20035;-73
2022/06/18 14:34:38;;;;;;;3.50;2.35;;;;;;;29.31;44.68;101556.47;10525396;28;20169;-74
2022/06/18 14:39:49;;;;;;;10.45;2.05;;;;;;;29.65;44.27;101527.34;10543128;28;20047;-72
2022/06/18 14:44:58;;;;;;;2.58;2.05;;;;;;;29.86;44.21;101520.16;10524265;28;20055;-70
2022/06/18 14:50:14;;;;;;;1.73;1.60;;;;;;;29.31;45.25;101514.59;10524717;28;20381;-73
2022/06/18 14:55:29;;;;;;;5.72;3.17;;;;;;;28.70;46.03;101479.47;10542551;28;20358;-72
2022/06/18 15:00:39;;;;;;;1.80;1.70;;;;;;;28.50;46.04;101448.06;10524778;28;20396;-72
2022/06/18 15:05:41;;;;;;;3.95;2.17;;;;;;;28.42;46.98;101450.72;10507359;28;20636;-72
2022/06/18 15:10:48;;;;;;;4.90;2.63;;;;;;;28.95;46.17;101439.97;10523751;28;20465;-72
2022/06/18 15:25:52;;;;;;;2.90;1.73;;;;;;;28.84;46.44;101448.84;10506700;28;20024;-72
2022/06/18 15:31:11;;;;;;;5.68;2.72;;;;;;;28.41;47.39;101429.56;10541202;28;20028;-72
2022/06/18 15:36:24;;;;;;;17.10;2.78;;;;;;;28.41;47.71;101435.97;10541535;28;20036;-72
2022/06/18 15:41:36;;;;;;;5.75;2.20;;;;;;;28.63;47.23;101448.41;10523076;28;20024;-72
2022/06/18 15:46:36;;;;;;;10.75;2.67;;;;;;;27.87;47.84;101467.97;10521997;28;20030;-72
2022/06/18 15:51:38;;;;;;;5.68;2.95;;;;;;;27.27;48.11;101459.28;10505807;28;20028;-72
2022/06/18 15:56:39;;;;;;;7.80;3.35;;;;;;;26.61;48.91;101463.53;10506181;28;20387;-72
2022/06/18 16:01:40;;;;;;;7.63;3.88;;;;;;;26.58;49.12;101448.31;10522867;28;20055;-72
2022/06/18 16:06:42;;;;;;;8.73;4.05;;;;;;;26.67;48.72;101452.13;10539973;28;20032;-72
2022/06/18 16:11:44;;;;;;;9.75;3.38;;;;;;;26.23;49.21;101451.34;10521245;28;20028;-72
2022/06/18 16:17:01;;;;;;;11.13;3.60;;;;;;;25.46;50.41;101441.53;10539758;28;20044;-72
2022/06/18 16:22:02;;;;;;;21.55;4.05;;;;;;;25.13;51.26;101439.44;10521803;28;20028;-72
2022/06/18 16:27:21;;;;;;;8.07;3.60;;;;;;;24.61;52.42;101460.03;10539226;28;20032;-72
2022/06/18 16:32:31;;;;;;;13.80;3.47;;;;;;;24.20;53.20;101460.00;10490396;28;20484;-72
2022/06/18 16:37:32;;;;;;;6.43;3.35;;;;;;;23.99;55.59;101451.66;10505058;28;20044;-71
2022/06/18 16:42:34;;;;;;;5.07;2.75;;;;;;;24.01;54.38;101454.16;10504596;28;20423;-72
2022/06/18 16:47:34;;;;;;;5.93;2.72;;;;;;;23.87;52.44;101459.41;10537956;28;20107;-71
2022/06/18 16:52:35;;;;;;;17.70;4.25;;;;;;;23.43;54.20;101432.13;10546764;28;20041;-72
2022/06/18 16:57:35;;;;;;;17.08;3.28;;;;;;;23.37;54.97;101425.75;10528689;28;20031;-71
2022/06/18 17:02:36;;;;;;;10.32;3.80;;;;;;;23.10;57.21;101411.25;10528914;28;20039;-71
2022/06/18 17:07:36;;;;;;;8.75;3.90;;;;;;;22.98;58.71;101409.53;10546906;28;20036;-71
2022/06/18 17:12:37;;;;;;;3.75;2.33;;;;;;;23.01;58.08;101410.13;10513155;28;20388;-72
2022/06/18 17:17:40;;;;;;;21.98;3.70;;;;;;;23.03;59.47;101407.91;10546464;28;20048;-72
2022/06/18 17:22:45;;;;;;;9.48;3.72;;;;;;;23.14;59.18;101413.22;10546093;28;20024;-71
2022/06/18 17:33:05;;;;;;;18.92;4.65;;;;;;;22.82;60.67;101393.13;10530500;28;20035;-71
2022/06/18 17:38:06;;;;;;;17.08;5.25;;;;;;;22.54;61.32;101394.34;10510261;28;20118;-71
2022/06/18 17:43:12;;;;;;;14.20;4.30;;;;;;;22.26;63.63;101388.06;10544848;28;20549;-72
2022/06/18 17:48:15;;;;;;;8.25;3.67;;;;;;;22.21;63.04;101379.75;10527909;28;20161;-71
2022/06/18 17:53:16;;;;;;;19.73;4.35;;;;;;;22.11;62.80;101366.66;10527038;28;20466;-72
2022/06/18 17:58:17;;;;;;;9.88;4.57;;;;;;;22.17;63.12;101353.78;10546114;28;20040;-71
2022/06/18 18:03:19;;;;;;;9.85;3.35;;;;;;;21.89;66.46;101344.69;10525672;28;20450;-71
2022/06/18 18:08:19;;;;;;;3.42;3.05;;;;;;;21.65;67.95;101329.59;10509766;28;20408;-71
2022/06/18 18:13:20;;;;;;;3.75;1.60;;;;;;;21.46;67.99;101323.59;10510118;28;20036;-71
2022/06/18 18:18:20;;;;;;;3.28;2.08;;;;;;;21.27;68.16;101315.66;10544060;28;20079;-71
2022/06/18 18:23:21;;;;;;;1.73;1.63;;;;;;;21.27;67.09;101292.81;10543834;28;20396;-71
2022/06/18 18:28:23;;;;;;;2.60;1.88;;;;;;;21.05;68.76;101284.56;10525637;28;20465;-71
2022/06/18 18:33:25;;;;;;;10.98;2.50;;;;;;;20.77;69.82;101280.97;10544017;28;20435;-71
2022/06/18 18:38:27;;;;;;;2.58;1.98;;;;;;;20.49;72.09;101270.94;10525611;28;20418;-71
2022/06/18 18:43:27;;;;;;;2.97;1.63;;;;;;;20.40;71.32;101250.44;10542882;28;20028;-71
2022/06/18 18:48:28;;;;;;;2.15;1.73;;;;;;;20.33;72.03;101256.13;10509248;28;20419;-72
2022/06/18 18:53:30;;;;;;;7.53;2.95;;;;;;;20.28;71.34;101255.22;10508114;28;20119;-71
2022/06/18 18:58:31;;;;;;;10.32;2.53;;;;;;;20.35;68.69;101253.94;10542308;28;20032;-71
2022/06/18 19:03:32;;;;;;;2.30;1.77;;;;;;;20.30;68.99;101251.13;10523910;28;20024;-71
2022/06/18 19:08:32;;;;;;;12.05;2.53;;;;;;;20.18;70.75;101247.66;10542080;28;20412;-71
2022/06/18 19:13:33;;;;;;;7.78;2.63;;;;;;;19.95;74.40;101254.19;10525292;28;20064;-71
2022/06/18 19:18:37;;;;;;;7.20;2.38;;;;;;;19.79;74.76;101239.38;10507041;28;20044;-71
2022/06/18 19:23:38;;;;;;;7.32;2.08;;;;;;;19.75;73.08;101257.47;10541363;28;20028;-71
2022/06/18 19:28:44;;;;;;;2.70;2.10;;;;;;;19.57;79.06;101272.22;10541373;28;20032;-71
2022/06/18 19:33:45;;;;;;;9.43;2.37;;;;;;;19.49;78.16;101294.59;10524346;28;20067;-71
2022/06/18 19:38:45;;;;;;;11.52;2.13;;;;;;;19.45;75.32;101308.00;10523649;28;20024;-72
2022/06/18 19:43:46;;;;;;;5.35;2.67;;;;;;;19.46;75.83;101325.31;10523712;28;20091;-71
2022/06/18 19:48:46;;;;;;;10.98;2.85;;;;;;;19.44;78.24;101320.06;10541285;28;20548;-71
2022/06/18 19:53:49;;;;;;;6.20;2.50;;;;;;;19.32;79.23;101312.97;10524121;28;20115;-71
2022/06/18 19:58:50;;;;;;;6.60;2.47;;;;;;;19.22;79.90;101324.59;10505753;28;20055;-71
2022/06/18 20:03:53;;;;;;;8.57;3.15;;;;;;;18.92;81.54;101327.53;10522310;28;20354;-71
2022/06/18 20:08:54;;;;;;;7.28;3.45;;;;;;;18.67;80.34;101325.09;10540148;28;20028;-71
2022/06/18 20:13:54;;;;;;;7.78;2.70;;;;;;;18.47;78.93;101293.34;10539428;28;20115;-71
2022/06/18 20:18:55;;;;;;;14.27;2.95;;;;;;;18.26;79.73;101303.06;10521260;28;20056;-71
2022/06/18 20:23:55;;;;;;;15.73;3.33;;;;;;;17.91;79.72;101272.91;10541648;28;20081;-71
2022/06/18 20:28:56;;;;;;;12.95;3.38;;;;;;;17.74;80.42;101286.44;10514681;28;20626;-72
2022/06/18 20:33:56;;;;;;;5.90;2.75;;;;;;;17.67;77.89;101308.41;10531236;28;20032;-72
2022/06/18 20:38:57;;;;;;;9.13;3.60;;;;;;;17.49;78.46;101299.47;10529534;28;20028;-71
2022/06/18 20:43:58;;;;;;;14.45;2.60;;;;;;;17.26;77.64;101287.38;10548060;28;20036;-72
2022/06/18 20:48:59;;;;;;;9.05;3.50;;;;;;;17.12;79.29;101289.44;10529689;28;20028;-71
2022/06/18 20:59:19;;;;;;;5.32;2.45;;;;;;;17.00;78.98;101320.56;10546948;28;20643;-71
2022/06/18 21:04:19;;;;;;;7.07;2.08;;;;;;;16.77;78.20;101311.16;10547160;28;20071;-71
2022/06/18 21:09:20;;;;;;;11.77;2.28;;;;;;;16.78;75.72;101326.47;10548135;28;20036;-71
2022/06/18 21:14:20;;;;;;;11.57;2.80;;;;;;;16.72;75.00;101341.06;10512041;28;20024;-69
2022/06/18 21:19:21;;;;;;;7.63;1.80;;;;;;;16.71;73.67;101347.56;10547399;28;20102;-68
2022/06/18 21:24:27;;;;;;;4.25;2.28;;;;;;;16.62;72.77;101359.88;10545926;28;20386;-68
2022/06/18 21:29:27;;;;;;;10.60;2.10;;;;;;;16.63;72.09;101354.19;10528514;28;20119;-68
2022/06/18 21:39:47;;;;;;;5.30;2.78;;;;;;;16.50;73.11;101359.81;10530614;28;20036;-68
2022/06/18 21:44:48;;;;;;;8.05;2.40;;;;;;;16.50;71.66;101354.34;10546354;28;20032;-68
2022/06/18 21:49:48;;;;;;;13.82;2.63;;;;;;;16.41;73.06;101334.66;10526863;28;20074;-67
2022/06/18 21:54:49;;;;;;;10.90;1.90;;;;;;;16.34;74.87;101331.16;10527466;28;20126;-67
2022/06/18 21:59:52;;;;;;;9.57;3.28;;;;;;;16.28;74.07;101310.19;10546016;28;20036;-67
2022/06/18 22:04:52;;;;;;;10.90;2.92;;;;;;;16.21;77.17;101318.44;10510610;28;20123;-67
2022/06/18 22:09:53;;;;;;;7.22;3.08;;;;;;;16.19;77.07;101303.34;10545541;28;20098;-67
2022/06/18 22:20:14;;;;;;;14.82;3.03;;;;;;;16.00;78.59;101251.38;10545101;28;20056;-67
2022/06/18 22:25:16;;;;;;;10.38;2.30;;;;;;;15.95;78.10;101228.53;10545108;28;20036;-67
2022/06/18 22:30:16;;;;;;;13.15;3.10;;;;;;;15.81;80.44;101203.25;10543668;28;20085;-75
2022/06/18 22:35:18;;;;;;;9.20;2.58;;;;;;;15.79;79.10;101184.38;10543564;28;20488;-71
2022/06/18 22:40:21;;;;;;;20.92;2.90;;;;;;;15.69;79.61;101167.66;10542607;28;20036;-71
2022/06/18 22:45:21;;;;;;;8.15;2.42;;;;;;;15.61;79.11;101169.81;10543370;28;20504;-71
2022/06/18 22:50:24;;;;;;;7.75;2.47;;;;;;;15.53;77.92;101160.00;10541778;28;20126;-71
2022/06/18 22:55:24;;;;;;;2.38;1.73;;;;;;;15.45;76.29;101133.84;10543890;28;20032;-71
2022/06/18 23:00:25;;;;;;;5.13;1.80;;;;;;;15.33;75.67;101113.81;10543579;28;20365;-71
2022/06/18 23:05:25;;;;;;;3.15;1.35;;;;;;;15.32;74.73;101120.34;10542273;28;20595;-71
2022/06/18 23:10:25;;;;;;;3.83;2.22;;;;;;;15.27;74.03;101104.63;10524607;28;20047;-71
2022/06/18 23:15:26;;;;;;;5.38;2.60;;;;;;;15.21;74.76;101108.22;10524421;28;20118;-71
2022/06/18 23:20:26;;;;;;;12.40;2.38;;;;;;;15.22;74.32;101109.06;10543281;28;20052;-71
2022/06/18 23:25:27;;;;;;;6.50;1.75;;;;;;;15.22;74.59;101117.25;10506874;28;20107;-71
2022/06/18 23:30:29;;;;;;;2.20;1.60;;;;;;;15.16;75.51;101112.72;10523341;28;20036;-71
2022/06/18 23:35:29;;;;;;;8.88;3.33;;;;;;;15.07;77.30;101115.69;10507902;28;20039;-71
2022/06/18 23:40:32;;;;;;;9.77;2.63;;;;;;;15.10;76.86;101114.44;10541655;28;20055;-71
2022/06/18 23:45:33;;;;;;;6.43;2.80;;;;;;;15.20;74.43;101125.66;10522820;28;20020;-71
2022/06/18 23:50:34;;;;;;;6.75;2.25;;;;;;;15.16;77.31;101107.25;10506818;28;20036;-71